Alfred, Texas
Current Conditions -  °F | °C
As of 3:53 AM on Thursday 29 Jan 2015 (Local Time) from KALI Reporting Station
Moderate Fog Moderate Fog  
Wind Chill: 54°   Ceiling: 200
Heat Index: 54°   Visibility: 0.25mi
Dew Point: 53°   Wind: 6mph
Humidity: 97%   Direction: 140°SE
Pressure: 30.12"   Gusts: NA
Location:  27.6821°N, 98.1034°W
Report Text: KALI 290953Z AUTO 14005KT 1/4SM FG VV002 12/12 A3012 RMK AO2 SLP199 T01220117
Loading
Personal Weather Stations






























Interactive Weather Map New forecast layout! Learn more

10-Day Weather Forecast

Advertisements
Track Severe Weather on mobile